createdAt,value
2023-11-01T03:30:51.145Z,4.95
2023-11-01T10:18:51.217Z,6.20
2023-11-01T10:21:18.115Z,7.72
2023-11-01T10:23:45.281Z,6.45
2023-11-01T10:26:12.176Z,6.35
2023-11-01T10:28:45.272Z,8.48
2023-11-01T10:31:15.269Z,6.20
2023-11-01T10:33:42.357Z,7.47
2023-11-01T10:36:10.330Z,5.28
2023-11-01T10:38:37.281Z,7.70
2023-11-01T10:41:07.829Z,4.63
2023-11-01T10:43:34.733Z,3.92
2023-11-01T10:46:02.067Z,4.97
2023-11-01T10:48:29.812Z,5.45
2023-11-01T10:51:00.149Z,4.35
2023-11-01T10:53:27.651Z,4.70
2023-11-01T10:55:54.836Z,4.72
2023-11-01T10:58:24.841Z,3.70
2023-11-01T11:01:16.994Z,5.55
2023-11-01T11:04:14.315Z,4.10
2023-11-01T11:06:47.054Z,5.32
2023-11-01T11:09:29.243Z,7.65
2023-11-01T11:12:26.124Z,3.60
2023-11-01T11:14:53.401Z,3.95
2023-11-01T11:17:21.378Z,4.93
2023-11-01T11:20:07.173Z,6.25
2023-11-01T11:23:07.521Z,5.32
2023-11-01T11:26:00.861Z,6.32
2023-11-01T11:28:35.999Z,5.03
2023-11-01T11:31:17.074Z,6.30
2023-11-01T11:33:47.253Z,3.97
2023-11-01T11:36:25.265Z,4.05
2023-11-01T11:38:58.698Z,4.25
2023-11-01T11:41:38.253Z,8.48
2023-11-01T11:44:20.975Z,4.50
2023-11-01T11:46:49.664Z,3.78
2023-11-01T11:49:23.887Z,4.72
2023-11-01T11:51:57.464Z,4.55
2023-11-01T11:54:26.105Z,4.00
2023-11-01T11:57:04.902Z,4.70
2023-11-01T11:59:34.403Z,3.63
2023-11-01T12:02:08.649Z,6.60
2023-11-01T12:04:37.990Z,6.97
2023-11-01T12:07:07.751Z,6.30
2023-11-01T12:09:34.799Z,4.88
2023-11-01T12:12:10.595Z,5.10
2023-11-01T12:14:39.029Z,5.03
2023-11-01T12:17:06.538Z,8.05
2023-11-01T12:19:36.615Z,6.63
2023-11-01T12:22:03.943Z,6.18
2023-11-01T12:24:49.950Z,4.80
2023-11-01T12:27:21.376Z,4.93
2023-11-01T12:29:55.892Z,6.00
2023-11-01T12:32:22.794Z,4.40
2023-11-01T12:34:50.067Z,3.63
2023-11-01T12:37:20.059Z,10.18
2023-11-01T12:40:07.986Z,5.35
2023-11-01T12:42:35.180Z,6.90
2023-11-01T12:45:02.338Z,4.95
2023-11-01T12:47:50.458Z,5.45
2023-11-01T12:50:32.201Z,5.88
2023-11-01T12:52:59.456Z,6.05
2023-11-01T12:55:27.587Z,5.40
2023-11-01T12:58:01.100Z,7.32
2023-11-01T13:00:32.369Z,3.80
2023-11-01T13:03:00.907Z,5.25
2023-11-01T13:05:27.881Z,5.03
2023-11-01T13:07:58.102Z,3.63
2023-11-01T13:10:26.069Z,5.05
2023-11-01T13:12:53.315Z,9.52
2023-11-01T13:15:20.578Z,6.47
2023-11-01T13:17:48.514Z,4.20
2023-11-01T13:20:16.964Z,6.65
2023-11-01T13:22:43.872Z,4.20
2023-11-01T13:25:10.750Z,3.67
2023-11-01T13:27:37.606Z,4.95
2023-11-01T13:30:05.024Z,3.10
2023-11-01T13:32:32.044Z,5.03
2023-11-01T13:34:59.180Z,4.20
2023-11-01T13:37:26.378Z,5.82
2023-11-01T13:39:53.294Z,4.38
2023-11-01T13:42:20.234Z,5.22
2023-11-01T13:44:47.434Z,6.43
2023-11-01T13:47:14.888Z,4.57
2023-11-01T13:49:43.117Z,4.85
2023-11-01T13:52:12.599Z,6.83
2023-11-01T13:54:39.825Z,8.75
2023-11-01T13:57:06.744Z,7.97
2023-11-01T13:59:33.816Z,8.73
2023-11-01T14:02:01.264Z,5.00
2023-11-01T14:04:28.381Z,4.53
2023-11-01T14:06:55.353Z,7.10
2023-11-01T14:09:22.391Z,9.73
2023-11-01T14:11:53.242Z,6.85
2023-11-01T14:14:21.508Z,6.63
2023-11-01T14:16:48.809Z,9.02
2023-11-01T14:19:15.848Z,12.02
2023-11-01T14:21:42.856Z,27.17
2023-11-01T14:24:11.118Z,8.70
2023-11-01T14:26:40.948Z,6.32
2023-11-01T14:29:07.875Z,3.78
2023-11-01T14:31:34.915Z,3.88
2023-11-01T14:34:02.018Z,3.55
2023-11-01T14:36:29.024Z,5.15
2023-11-01T14:38:55.952Z,6.47
2023-11-01T14:41:22.951Z,5.28
2023-11-01T14:43:50.517Z,4.25
2023-11-01T14:46:17.434Z,4.53
2023-11-01T14:48:45.361Z,5.03
2023-11-01T14:51:12.859Z,5.18
2023-11-01T14:53:39.828Z,4.82
2023-11-01T14:56:17.505Z,4.72
2023-11-01T14:58:48.233Z,5.40
2023-11-01T15:01:15.822Z,4.63
2023-11-01T15:03:43.863Z,7.63
2023-11-01T15:08:46.512Z,4.00
2023-11-01T15:11:14.903Z,5.97
2023-11-01T15:13:41.806Z,14.05
2023-11-01T15:22:21.895Z,17.70
2023-11-01T15:46:10.673Z,21.35
2023-11-01T17:35:35.987Z,24.73
2023-11-01T17:56:55.480Z,73.32
